Time;durP1;ratioP1;P1;durP2;ratioP2;P2;SDS_P1;SDS_P2;PMS_P1;PMS_P2;Temp;Humidity;BMP_temperature;BMP_pressure;BME280_temperature;BME280_humidity;BME280_pressure;Samples;Min_cycle;Max_cycle;Signal;HPM_P1;HPM_P2
2022/06/29 00:00:18;;;;;;;3.55;2.20;;;;;;;16.55;70.46;101536.88;1058469;27;20432;-80
2022/06/29 00:00:50;;;;;;;6.50;1.70;;;;;;;16.52;70.82;101543.56;1059232;27;20105;-80
2022/06/29 00:01:23;;;;;;;1.95;1.27;;;;;;;16.47;71.00;101545.31;1056602;27;20035;-80
2022/06/29 00:01:55;;;;;;;7.60;2.00;;;;;;;16.54;70.53;101535.25;1053217;28;20036;-80
2022/06/29 00:02:26;;;;;;;4.10;1.45;;;;;;;16.51;70.49;101533.84;1050780;28;20051;-80
2022/06/29 00:02:58;;;;;;;4.55;1.85;;;;;;;16.51;70.46;101530.34;1050880;28;20479;-80
2022/06/29 00:03:30;;;;;;;1.92;1.50;;;;;;;16.52;70.39;101526.59;1053242;28;20397;-80
2022/06/29 00:04:02;;;;;;;7.18;2.00;;;;;;;16.46;71.20;101538.31;1055314;28;20421;-80
2022/06/29 00:04:34;;;;;;;2.50;1.63;;;;;;;16.53;70.84;101536.31;1053334;27;20383;-80
2022/06/29 00:05:07;;;;;;;2.67;1.30;;;;;;;16.43;70.75;101538.75;1060524;27;20058;-80
2022/06/29 00:05:38;;;;;;;1.63;1.38;;;;;;;16.38;70.33;101532.22;1055722;27;20059;-80
2022/06/29 00:06:11;;;;;;;4.47;1.80;;;;;;;16.23;71.18;101539.19;1061191;27;20055;-80
2022/06/29 00:06:42;;;;;;;2.50;1.60;;;;;;;16.36;71.23;101536.22;1056783;28;20039;-80
2022/06/29 00:07:14;;;;;;;3.38;1.27;;;;;;;16.50;70.62;101534.09;1052840;28;20040;-80
2022/06/29 00:07:45;;;;;;;3.03;2.08;;;;;;;16.51;70.69;101533.03;1053192;28;20528;-80
2022/06/29 00:08:17;;;;;;;3.20;1.58;;;;;;;16.49;70.56;101527.09;1052469;28;20544;-80
2022/06/29 00:08:49;;;;;;;2.47;1.30;;;;;;;16.45;71.12;101539.38;1053449;28;20048;-80
2022/06/29 00:09:20;;;;;;;2.33;1.30;;;;;;;16.46;70.88;101533.75;1056894;28;20047;-80
2022/06/29 00:09:52;;;;;;;4.90;1.27;;;;;;;16.42;71.21;101539.81;1051771;28;20036;-80
2022/06/29 00:10:24;;;;;;;4.45;1.73;;;;;;;16.38;71.19;101542.16;1053325;28;20141;-79
2022/06/29 00:10:56;;;;;;;4.22;1.42;;;;;;;16.42;70.82;101535.25;1055961;27;20054;-79
2022/06/29 00:11:28;;;;;;;2.65;1.60;;;;;;;16.42;70.63;101537.94;1056991;27;20062;-79
2022/06/29 00:11:59;;;;;;;3.70;1.75;;;;;;;16.43;70.88;101538.75;1055476;28;20035;-79
2022/06/29 00:12:31;;;;;;;3.53;1.65;;;;;;;16.33;71.30;101544.75;1052608;28;20032;-79
2022/06/29 00:13:03;;;;;;;6.03;2.55;;;;;;;16.31;71.59;101542.31;1052175;28;20090;-79
2022/06/29 00:13:34;;;;;;;3.15;1.42;;;;;;;16.32;71.38;101535.88;1051566;28;20047;-79
2022/06/29 00:14:06;;;;;;;5.60;1.60;;;;;;;16.42;71.38;101529.88;1048820;28;20044;-79
2022/06/29 00:14:41;;;;;;;4.95;1.88;;;;;;;16.44;70.90;101532.38;1047777;28;20402;-79
2022/06/29 00:15:21;;;;;;;4.28;1.58;;;;;;;16.39;70.50;101527.66;1048557;28;20041;-79
2022/06/29 00:15:52;;;;;;;3.03;1.42;;;;;;;16.42;70.99;101526.38;1047811;28;20096;-79
2022/06/29 00:16:24;;;;;;;3.15;1.70;;;;;;;16.35;70.92;101537.28;1055661;27;20036;-79
2022/06/29 00:16:56;;;;;;;6.82;2.08;;;;;;;16.32;70.94;101527.81;1054370;28;20036;-79
2022/06/29 00:17:29;;;;;;;2.25;1.40;;;;;;;16.29;71.07;101530.16;1056893;27;20040;-79
2022/06/29 00:18:01;;;;;;;1.85;1.38;;;;;;;16.41;70.54;101530.94;1060844;27;20043;-79
2022/06/29 00:18:32;;;;;;;4.25;1.70;;;;;;;16.33;70.75;101534.00;1052081;28;20052;-79
2022/06/29 00:19:04;;;;;;;4.22;1.70;;;;;;;16.20;70.69;101529.72;1053280;28;20047;-79
2022/06/29 00:19:36;;;;;;;7.57;1.65;;;;;;;16.34;71.42;101528.38;1053045;28;20067;-79
2022/06/29 00:20:12;;;;;;;5.70;1.73;;;;;;;16.35;71.09;101531.91;1052853;28;20048;-79
2022/06/29 00:20:44;;;;;;;3.30;1.65;;;;;;;16.36;70.61;101528.16;1048195;28;20047;-79
2022/06/29 00:21:15;;;;;;;4.18;1.80;;;;;;;16.31;71.45;101533.44;1049399;28;20040;-79
2022/06/29 00:21:47;;;;;;;2.20;1.70;;;;;;;16.33;71.12;101528.63;1053447;28;20685;-79
2022/06/29 00:22:19;;;;;;;2.05;1.42;;;;;;;16.29;71.82;101532.84;1055213;28;20106;-79
2022/06/29 00:22:50;;;;;;;3.53;1.38;;;;;;;16.23;71.50;101531.94;1053010;28;20574;-79
2022/06/29 00:23:22;;;;;;;5.25;1.80;;;;;;;16.18;71.85;101531.81;1052756;28;20520;-79
2022/06/29 00:23:54;;;;;;;3.70;1.58;;;;;;;16.20;72.15;101540.47;1048357;28;20044;-79
2022/06/29 00:24:26;;;;;;;4.50;1.40;;;;;;;16.20;71.87;101523.53;1044635;28;20041;-79
2022/06/29 00:24:57;;;;;;;3.17;1.50;;;;;;;16.28;71.86;101529.34;1047226;28;20458;-79
2022/06/29 00:25:29;;;;;;;1.77;1.42;;;;;;;16.10;72.26;101529.47;1048868;28;20406;-78
2022/06/29 00:26:01;;;;;;;2.10;1.77;;;;;;;16.07;72.02;101528.09;1053103;28;20075;-79
2022/06/29 00:26:32;;;;;;;3.92;1.60;;;;;;;16.06;72.04;101531.00;1044888;28;20534;-79
2022/06/29 00:27:04;;;;;;;3.50;2.28;;;;;;;16.12;72.63;101538.13;1048735;28;20048;-79
2022/06/29 00:27:36;;;;;;;4.15;1.23;;;;;;;16.04;73.29;101536.63;1052883;28;20036;-79
2022/06/29 00:28:07;;;;;;;6.15;1.80;;;;;;;15.98;72.60;101536.75;1052496;28;20044;-79
2022/06/29 00:28:39;;;;;;;7.00;1.70;;;;;;;15.93;72.87;101536.66;1052302;28;20064;-79
2022/06/29 00:29:11;;;;;;;4.43;1.45;;;;;;;15.70;73.78;101551.69;1044772;28;20048;-79
2022/06/29 00:29:42;;;;;;;4.20;1.63;;;;;;;15.72;73.57;101543.41;1044496;28;20049;-79
2022/06/29 00:30:14;;;;;;;3.95;1.45;;;;;;;15.77;73.27;101547.03;1048510;28;20036;-79
2022/06/29 00:30:46;;;;;;;2.22;1.55;;;;;;;15.88;73.64;101548.06;1052159;28;20040;-79
2022/06/29 00:31:18;;;;;;;3.90;1.70;;;;;;;15.93;73.69;101545.53;1056568;28;20081;-79
2022/06/29 00:31:49;;;;;;;2.50;1.67;;;;;;;15.91;73.50;101541.44;1048062;28;20041;-79
2022/06/29 00:32:21;;;;;;;3.67;1.90;;;;;;;15.92;73.90;101543.06;1049236;28;20572;-79
2022/06/29 00:32:53;;;;;;;6.13;1.70;;;;;;;15.88;74.18;101541.88;1052905;28;20036;-79
2022/06/29 00:33:24;;;;;;;3.17;1.60;;;;;;;15.94;73.26;101538.28;1049699;28;20045;-79
2022/06/29 00:33:56;;;;;;;1.77;1.67;;;;;;;15.94;73.61;101540.97;1048397;28;20047;-79
2022/06/29 00:34:28;;;;;;;2.33;1.45;;;;;;;15.59;74.10;101541.75;1048441;28;20532;-79
2022/06/29 00:34:59;;;;;;;2.13;1.52;;;;;;;15.49;74.81;101544.16;1053236;28;20394;-79
2022/06/29 00:35:31;;;;;;;4.22;1.83;;;;;;;15.60;74.75;101550.63;1051884;28;20039;-79
2022/06/29 00:36:04;;;;;;;2.55;1.98;;;;;;;15.53;75.76;101553.41;1056452;28;20374;-79
2022/06/29 00:36:35;;;;;;;2.70;1.75;;;;;;;15.71;75.67;101556.03;1049004;28;20059;-80
2022/06/29 00:37:07;;;;;;;4.97;2.30;;;;;;;15.72;74.78;101549.59;1053081;28;20044;-79
2022/06/29 00:37:38;;;;;;;4.22;1.77;;;;;;;15.83;74.69;101549.81;1048300;28;20402;-80
2022/06/29 00:38:10;;;;;;;2.20;1.70;;;;;;;15.67;74.79;101548.66;1052155;28;20039;-80
2022/06/29 00:38:42;;;;;;;1.63;1.40;;;;;;;15.74;75.16;101547.50;1052543;28;20566;-80
2022/06/29 00:39:13;;;;;;;3.25;1.67;;;;;;;15.73;74.78;101551.22;1051929;28;20055;-80
2022/06/29 00:39:45;;;;;;;1.83;1.52;;;;;;;15.74;74.86;101552.88;1052170;28;20046;-80
2022/06/29 00:40:16;;;;;;;4.05;2.90;;;;;;;15.74;74.78;101550.19;1053422;28;20501;-79
2022/06/29 00:40:48;;;;;;;1.85;1.40;;;;;;;15.79;74.78;101545.97;1052369;28;20409;-79
2022/06/29 00:41:20;;;;;;;3.15;1.95;;;;;;;15.71;74.96;101547.97;1051793;28;20490;-79
2022/06/29 00:41:51;;;;;;;4.15;1.80;;;;;;;15.69;75.17;101544.69;1050684;28;20032;-80
2022/06/29 00:42:23;;;;;;;4.03;1.80;;;;;;;15.77;74.54;101541.66;1053124;27;20051;-80
2022/06/29 00:42:54;;;;;;;8.75;1.98;;;;;;;15.82;74.07;101543.63;1058034;27;20528;-79
2022/06/29 00:43:26;;;;;;;3.17;1.73;;;;;;;15.91;73.70;101531.50;1054185;28;20065;-79
2022/06/29 00:43:58;;;;;;;2.05;1.67;;;;;;;15.83;73.85;101531.03;1052970;28;20032;-79
2022/06/29 00:44:30;;;;;;;2.75;1.70;;;;;;;15.79;73.84;101543.28;1056181;28;20513;-79
2022/06/29 00:45:02;;;;;;;3.75;2.10;;;;;;;15.60;75.05;101539.88;1052632;28;20118;-79
2022/06/29 00:45:34;;;;;;;9.90;2.40;;;;;;;15.80;74.15;101537.69;1056676;28;20047;-79
2022/06/29 00:46:05;;;;;;;8.23;2.00;;;;;;;15.80;73.95;101535.00;1052939;28;20042;-79
2022/06/29 00:46:43;;;;;;;2.30;1.60;;;;;;;15.79;74.75;101538.72;1048821;28;20036;-79
2022/06/29 00:47:14;;;;;;;3.25;1.85;;;;;;;15.64;74.19;101541.91;1049602;28;20051;-79
2022/06/29 00:47:46;;;;;;;2.08;1.60;;;;;;;15.70;74.92;101543.66;1051062;28;20047;-79
2022/06/29 00:48:17;;;;;;;1.70;1.60;;;;;;;15.68;74.88;101543.06;1053583;28;20044;-79
2022/06/29 00:48:49;;;;;;;5.82;2.10;;;;;;;15.68;74.85;101547.63;1052876;28;20470;-80
2022/06/29 00:49:22;;;;;;;5.93;2.25;;;;;;;15.81;74.55;101530.44;1058177;27;20515;-79
2022/06/29 00:49:53;;;;;;;3.58;2.03;;;;;;;15.81;73.88;101528.56;1056863;27;20044;-79
2022/06/29 00:50:29;;;;;;;4.25;1.80;;;;;;;15.84;74.27;101532.66;1056191;28;20062;-79
2022/06/29 00:51:02;;;;;;;3.83;1.70;;;;;;;15.82;74.37;101537.44;1049574;28;20048;-79
2022/06/29 00:51:35;;;;;;;4.40;2.45;;;;;;;15.75;74.57;101537.56;1050497;28;20432;-79
2022/06/29 00:52:10;;;;;;;6.35;2.13;;;;;;;15.69;74.71;101539.31;1052049;28;20047;-79
2022/06/29 00:52:43;;;;;;;2.90;1.75;;;;;;;15.74;74.60;101531.38;1048910;28;20044;-79
2022/06/29 00:53:16;;;;;;;4.97;1.63;;;;;;;15.60;74.69;101532.63;1052443;28;20032;-79
2022/06/29 00:53:49;;;;;;;5.03;2.00;;;;;;;15.85;73.69;101527.03;1052508;28;20051;-79
2022/06/29 00:54:23;;;;;;;2.92;1.63;;;;;;;15.81;74.30;101536.63;1051878;28;20515;-79
2022/06/29 00:54:57;;;;;;;3.60;2.22;;;;;;;15.80;73.89;101528.81;1053230;28;20043;-79
2022/06/29 00:55:30;;;;;;;3.60;1.50;;;;;;;15.92;73.19;101525.06;1053396;28;20044;-79
2022/06/29 00:56:03;;;;;;;6.30;1.88;;;;;;;15.91;73.04;101525.31;1053818;28;20441;-79
2022/06/29 00:56:35;;;;;;;3.40;2.20;;;;;;;15.88;73.59;101526.56;1057819;27;20153;-79
2022/06/29 00:57:11;;;;;;;2.67;1.92;;;;;;;15.88;73.92;101525.75;1056634;27;20044;-79
2022/06/29 00:57:44;;;;;;;4.85;1.83;;;;;;;15.88;74.00;101521.19;1055961;27;20044;-79
2022/06/29 00:58:18;;;;;;;3.13;1.63;;;;;;;15.87;73.25;101518.75;1050230;28;20040;-79
2022/06/29 00:58:53;;;;;;;3.78;2.00;;;;;;;15.87;73.48;101518.75;1054228;28;20044;-79
2022/06/29 00:59:26;;;;;;;6.13;2.22;;;;;;;15.83;73.74;101526.47;1051759;28;20046;-79
2022/06/29 00:59:59;;;;;;;4.05;2.13;;;;;;;15.80;74.02;101523.44;1048859;28;20037;-79
2022/06/29 01:00:32;;;;;;;10.90;3.55;;;;;;;15.81;73.60;101517.81;1046626;28;20174;-80
2022/06/29 01:01:04;;;;;;;3.40;1.95;;;;;;;15.80;74.14;101523.44;1043962;28;20521;-79
2022/06/29 01:01:36;;;;;;;3.95;1.83;;;;;;;15.77;74.30;101525.53;1047513;28;20044;-79
2022/06/29 01:02:08;;;;;;;2.65;1.85;;;;;;;15.84;73.55;101514.66;1044388;28;20392;-79
2022/06/29 01:02:40;;;;;;;2.40;1.83;;;;;;;15.83;73.90;101520.28;1049635;28;20037;-79
2022/06/29 01:03:11;;;;;;;2.22;1.92;;;;;;;15.74;74.35;101520.63;1048983;28;20128;-79
2022/06/29 01:03:43;;;;;;;4.60;2.53;;;;;;;15.74;74.35;101526.00;1047899;28;20060;-79
2022/06/29 01:04:15;;;;;;;3.65;2.30;;;;;;;15.75;74.16;101516.91;1048187;28;20040;-79
2022/06/29 01:04:47;;;;;;;4.28;2.05;;;;;;;15.74;74.12;101517.94;1044309;28;20037;-79
2022/06/29 01:05:19;;;;;;;6.35;1.83;;;;;;;15.70;74.26;101524.84;1048239;28;20040;-79
2022/06/29 01:05:50;;;;;;;9.40;2.40;;;;;;;15.64;74.87;101531.16;1053076;28;20425;-79
2022/06/29 01:06:23;;;;;;;3.20;1.60;;;;;;;15.65;75.00;101527.41;1053310;27;20040;-79
2022/06/29 01:06:55;;;;;;;2.97;2.08;;;;;;;15.66;74.93;101528.22;1056812;27;20517;-79
2022/06/29 01:07:29;;;;;;;4.90;1.83;;;;;;;15.65;75.36;101531.97;1056684;28;20069;-79
2022/06/29 01:08:00;;;;;;;6.25;1.98;;;;;;;15.60;74.85;101529.97;1053116;28;20394;-79
2022/06/29 01:08:32;;;;;;;2.20;1.80;;;;;;;15.66;74.59;101523.69;1048951;28;20040;-79
2022/06/29 01:09:04;;;;;;;7.55;2.10;;;;;;;15.47;75.07;101524.78;1052325;28;20040;-79
2022/06/29 01:09:38;;;;;;;1.63;1.52;;;;;;;15.59;75.35;101522.94;1047976;28;20242;-79
2022/06/29 01:10:09;;;;;;;5.70;2.17;;;;;;;15.62;74.77;101525.19;1052629;28;20043;-79
2022/06/29 01:10:41;;;;;;;6.40;2.38;;;;;;;15.60;75.37;101519.22;1052760;28;20040;-79
2022/06/29 01:11:13;;;;;;;4.25;2.50;;;;;;;15.57;74.75;101525.03;1052834;28;20044;-79
2022/06/29 01:11:49;;;;;;;4.57;1.98;;;;;;;15.62;74.82;101527.88;1048541;28;20505;-79
2022/06/29 01:12:21;;;;;;;2.38;2.03;;;;;;;15.62;75.36;101522.50;1048990;28;20051;-79
2022/06/29 01:12:53;;;;;;;4.70;1.90;;;;;;;15.59;75.27;101528.31;1048980;28;20091;-79
2022/06/29 01:13:24;;;;;;;4.82;2.63;;;;;;;15.64;74.99;101520.41;1043780;28;20037;-79
2022/06/29 01:13:56;;;;;;;4.30;2.53;;;;;;;15.66;74.85;101521.00;1044391;28;20041;-79
2022/06/29 01:14:28;;;;;;;3.85;2.45;;;;;;;15.60;74.91;101524.59;1047943;28;20047;-79
2022/06/29 01:15:04;;;;;;;4.38;2.33;;;;;;;15.65;75.06;101521.22;1046324;28;20388;-79
2022/06/29 01:15:36;;;;;;;3.28;2.03;;;;;;;15.57;75.47;101527.72;1048145;28;20043;-79
2022/06/29 01:16:07;;;;;;;4.55;2.33;;;;;;;15.64;75.69;101524.97;1048908;28;20041;-79
2022/06/29 01:16:39;;;;;;;4.90;2.17;;;;;;;15.70;75.03;101514.09;1049394;28;20124;-79
2022/06/29 01:17:11;;;;;;;2.55;1.90;;;;;;;15.71;74.60;101510.38;1050749;28;20379;-79
2022/06/29 01:17:43;;;;;;;4.13;2.22;;;;;;;15.70;74.12;101507.91;1050332;28;20043;-79
2022/06/29 01:18:15;;;;;;;2.15;1.90;;;;;;;15.49;75.16;101522.69;1048806;28;20032;-79
2022/06/29 01:18:47;;;;;;;3.88;2.20;;;;;;;15.60;74.90;101524.59;1046975;28;20461;-79
2022/06/29 01:19:18;;;;;;;2.38;1.90;;;;;;;15.63;74.93;101516.09;1056168;28;20055;-79
2022/06/29 01:19:52;;;;;;;3.70;2.13;;;;;;;15.64;74.68;101514.22;1049923;28;20184;-79
2022/06/29 01:20:24;;;;;;;2.80;2.10;;;;;;;15.51;75.21;101522.47;1053191;28;20452;-79
2022/06/29 01:20:55;;;;;;;4.70;2.20;;;;;;;15.50;75.75;101528.88;1056101;28;20043;-79
2022/06/29 01:21:28;;;;;;;5.03;2.38;;;;;;;15.53;76.10;101523.84;1052686;28;20510;-79
2022/06/29 01:22:19;;;;;;;3.63;1.90;;;;;;;15.50;75.93;101526.19;1052726;28;20329;-79
2022/06/29 01:22:52;;;;;;;;;;;;;;;15.24;76.95;101524.75;1048122;28;20142;-79
2022/06/29 01:23:23;;;;;;;4.00;2.85;;;;;;;15.42;76.27;101528.19;1046593;28;19927;-79
2022/06/29 01:23:55;;;;;;;2.85;2.03;;;;;;;15.47;76.46;101524.78;1046942;28;20525;-79
2022/06/29 01:24:27;;;;;;;4.20;2.13;;;;;;;15.41;76.02;101529.22;1049067;28;20040;-79
2022/06/29 01:24:58;;;;;;;4.10;2.63;;;;;;;15.51;75.19;101512.53;1052446;28;20383;-79
2022/06/29 01:25:30;;;;;;;3.08;2.08;;;;;;;15.54;75.72;101520.13;1055010;27;20048;-79
2022/06/29 01:26:05;;;;;;;4.38;2.22;;;;;;;15.49;75.38;101519.19;1052306;28;20087;-79
2022/06/29 01:26:37;;;;;;;3.67;2.33;;;;;;;15.50;75.28;101524.31;1052891;28;20040;-79
2022/06/29 01:27:08;;;;;;;2.65;2.40;;;;;;;15.34;76.34;101525.00;1060052;27;20039;-79
2022/06/29 01:27:41;;;;;;;2.22;2.10;;;;;;;15.29;76.50;101532.91;1059816;27;20051;-79
2022/06/29 01:28:13;;;;;;;3.50;2.03;;;;;;;15.25;77.24;101531.75;1059946;27;20043;-79
2022/06/29 01:28:46;;;;;;;6.78;2.05;;;;;;;15.22;76.89;101538.41;1055501;28;20414;-80
2022/06/29 01:29:18;;;;;;;4.07;2.10;;;;;;;15.31;77.48;101533.50;1052189;28;20118;-79
2022/06/29 01:29:49;;;;;;;3.83;2.50;;;;;;;15.40;76.36;101524.09;1048415;28;20051;-79
2022/06/29 01:30:21;;;;;;;3.03;2.30;;;;;;;15.46;75.68;101528.53;1051225;28;20414;-79
2022/06/29 01:30:53;;;;;;;2.70;2.28;;;;;;;15.47;75.66;101519.41;1044882;28;20052;-79
2022/06/29 01:31:24;;;;;;;5.85;2.40;;;;;;;15.50;76.08;101518.94;1052311;28;20044;-79
2022/06/29 01:31:56;;;;;;;2.50;2.28;;;;;;;15.44;75.93;101519.88;1051782;28;20582;-79
2022/06/29 01:32:28;;;;;;;4.53;2.47;;;;;;;15.45;75.67;101524.22;1046688;28;20048;-79
2022/06/29 01:33:00;;;;;;;5.50;3.08;;;;;;;15.45;75.99;101526.88;1053788;28;20039;-79
2022/06/29 01:33:31;;;;;;;3.17;2.17;;;;;;;15.44;75.72;101523.38;1051773;28;20127;-79
2022/06/29 01:34:03;;;;;;;5.85;2.20;;;;;;;15.40;76.38;101519.53;1046790;28;20041;-79
2022/06/29 01:34:35;;;;;;;4.28;2.65;;;;;;;15.32;76.70;101521.72;1048468;28;20041;-79
2022/06/29 01:35:12;;;;;;;2.42;1.83;;;;;;;15.31;77.57;101526.28;1047709;28;20057;-79
2022/06/29 01:35:43;;;;;;;3.50;2.05;;;;;;;15.20;77.61;101528.94;1055085;28;20044;-79
2022/06/29 01:36:16;;;;;;;2.55;2.30;;;;;;;15.22;76.88;101522.28;1053352;28;20040;-79
2022/06/29 01:36:47;;;;;;;3.60;2.17;;;;;;;15.22;77.09;101516.09;1052207;28;20044;-79
2022/06/29 01:37:19;;;;;;;4.47;2.03;;;;;;;15.29;77.30;101527.56;1052587;28;20090;-79
2022/06/29 01:37:51;;;;;;;4.65;2.15;;;;;;;15.30;76.65;101521.13;1052880;28;20105;-79
2022/06/29 01:38:22;;;;;;;8.85;2.10;;;;;;;15.30;76.54;101518.44;1052626;28;20074;-79
2022/06/29 01:38:54;;;;;;;2.67;2.38;;;;;;;15.29;76.63;101522.19;1056201;28;20039;-79
2022/06/29 01:39:27;;;;;;;5.18;2.58;;;;;;;15.24;77.27;101530.13;1056963;27;20040;-79
2022/06/29 01:39:59;;;;;;;5.65;2.38;;;;;;;15.17;77.45;101522.16;1055218;28;20440;-79
2022/06/29 01:40:31;;;;;;;3.22;2.67;;;;;;;15.04;77.42;101525.84;1055576;28;20441;-79
2022/06/29 01:41:08;;;;;;;3.25;2.42;;;;;;;14.96;77.82;101523.50;1051125;28;20044;-79
2022/06/29 01:41:39;;;;;;;3.10;1.85;;;;;;;14.94;77.40;101525.59;1052382;28;20048;-79
2022/06/29 01:42:11;;;;;;;5.05;2.30;;;;;;;15.00;77.69;101519.31;1047946;28;20043;-79
2022/06/29 01:42:43;;;;;;;2.30;2.10;;;;;;;15.21;77.27;101522.53;1050971;27;20403;-79
2022/06/29 01:43:14;;;;;;;3.88;2.30;;;;;;;15.17;77.30;101524.03;1056883;27;20039;-79
2022/06/29 01:43:46;;;;;;;3.58;2.45;;;;;;;15.20;77.35;101513.66;1049711;28;20044;-79
2022/06/29 01:44:18;;;;;;;5.28;2.72;;;;;;;15.13;77.10;101513.75;1052513;28;20115;-79
2022/06/29 01:44:50;;;;;;;6.20;3.45;;;;;;;15.18;77.23;101515.75;1056753;27;20059;-79
2022/06/29 01:45:21;;;;;;;2.97;2.33;;;;;;;15.21;76.98;101509.09;1050788;27;20045;-79
2022/06/29 01:45:53;;;;;;;3.85;2.85;;;;;;;15.27;76.85;101510.88;1056276;28;20047;-79
2022/06/29 01:46:26;;;;;;;5.68;2.50;;;;;;;15.22;77.23;101505.38;1051876;28;21652;-79
2022/06/29 01:46:58;;;;;;;3.08;2.67;;;;;;;15.21;77.12;101515.28;1054956;27;20047;-79
2022/06/29 01:47:29;;;;;;;3.90;2.40;;;;;;;15.21;77.10;101514.47;1052373;28;20043;-79
2022/06/29 01:48:01;;;;;;;4.40;2.40;;;;;;;15.23;77.32;101512.38;1048821;28;20558;-79
2022/06/29 01:48:32;;;;;;;8.02;2.47;;;;;;;15.23;77.53;101507.00;1052583;28;20044;-79
2022/06/29 01:49:05;;;;;;;6.03;2.58;;;;;;;15.30;76.89;101507.72;1053131;28;20086;-79
2022/06/29 01:49:37;;;;;;;2.78;2.58;;;;;;;15.22;76.90;101505.38;1050524;28;20054;-79
2022/06/29 01:50:09;;;;;;;4.47;2.85;;;;;;;15.24;76.78;101503.28;1048464;28;20052;-79
2022/06/29 01:50:40;;;;;;;4.93;2.60;;;;;;;15.18;76.94;101507.69;1043549;28;20050;-79
2022/06/29 01:51:12;;;;;;;8.52;2.47;;;;;;;15.13;76.75;101508.41;1043035;28;20424;-79
2022/06/29 01:51:44;;;;;;;4.88;2.50;;;;;;;15.12;76.89;101505.94;1044989;28;20045;-79
2022/06/29 01:52:16;;;;;;;2.25;2.08;;;;;;;14.90;77.29;101511.00;1048717;28;20127;-79
2022/06/29 01:52:47;;;;;;;3.75;2.45;;;;;;;14.73;78.46;101518.03;1047531;28;20087;-79
2022/06/29 01:53:19;;;;;;;7.90;2.50;;;;;;;14.81;78.60;101515.06;1048455;28;20047;-79
2022/06/29 01:53:51;;;;;;;2.85;2.47;;;;;;;14.85;78.23;101510.88;1047511;28;20041;-79
2022/06/29 01:54:23;;;;;;;5.35;2.78;;;;;;;14.71;78.57;101509.41;1048487;28;20036;-79
2022/06/29 01:54:54;;;;;;;5.03;2.45;;;;;;;14.56;79.24;101517.06;1052584;28;20035;-79
2022/06/29 01:55:26;;;;;;;2.45;2.25;;;;;;;14.60;79.34;101518.25;1047612;28;20090;-79
2022/06/29 01:55:57;;;;;;;4.03;2.75;;;;;;;14.81;78.69;101517.75;1051082;28;20422;-79
2022/06/29 01:56:29;;;;;;;3.42;2.83;;;;;;;14.82;78.73;101505.97;1052761;28;20043;-79
2022/06/29 01:57:01;;;;;;;3.53;2.55;;;;;;;14.79;78.63;101514.44;1052114;28;20058;-79
2022/06/29 01:57:32;;;;;;;7.50;2.88;;;;;;;14.77;78.82;101514.69;1047892;28;20059;-79
2022/06/29 01:58:04;;;;;;;6.40;2.38;;;;;;;14.92;78.60;101506.22;1052855;28;20051;-79
2022/06/29 01:58:35;;;;;;;5.10;2.53;;;;;;;14.99;77.80;101506.13;1054794;28;20430;-79
2022/06/29 01:59:07;;;;;;;5.63;2.72;;;;;;;14.95;77.76;101505.78;1047208;28;20040;-79
2022/06/29 01:59:39;;;;;;;4.43;2.53;;;;;;;15.03;77.59;101492.03;1048258;28;20048;-79
2022/06/29 02:00:11;;;;;;;2.45;2.25;;;;;;;15.11;77.54;101489.03;1051900;28;20036;-78
2022/06/29 02:00:43;;;;;;;4.18;3.05;;;;;;;15.10;77.14;101492.75;1048612;28;20514;-78
2022/06/29 02:01:18;;;;;;;2.97;2.38;;;;;;;15.03;77.23;101496.56;1054189;27;20501;-78
2022/06/29 02:01:50;;;;;;;3.17;2.88;;;;;;;14.90;77.66;101492.22;1060687;27;20043;-78
2022/06/29 02:02:21;;;;;;;3.08;2.67;;;;;;;14.89;78.02;101501.31;1061151;27;20035;-78
2022/06/29 02:02:53;;;;;;;3.22;2.38;;;;;;;14.84;78.22;101503.88;1061598;27;20039;-78
2022/06/29 02:03:25;;;;;;;3.63;2.20;;;;;;;14.52;79.10;101503.28;1056416;28;20040;-78
2022/06/29 02:03:56;;;;;;;3.53;3.00;;;;;;;14.53;79.47;101508.44;1051015;28;20079;-79
2022/06/29 02:04:28;;;;;;;3.97;2.63;;;;;;;14.68;79.23;101505.31;1044370;28;20041;-78
2022/06/29 02:05:00;;;;;;;3.17;2.90;;;;;;;14.75;79.25;101505.22;1051914;28;20032;-78
2022/06/29 02:05:31;;;;;;;4.07;3.00;;;;;;;14.81;78.73;101494.44;1054594;28;20042;-78
2022/06/29 02:06:03;;;;;;;7.93;4.03;;;;;;;14.89;78.44;101490.59;1059579;27;20066;-78
2022/06/29 02:06:35;;;;;;;4.20;2.58;;;;;;;14.90;78.01;101499.47;1064087;27;20035;-78
2022/06/29 02:07:06;;;;;;;3.33;2.90;;;;;;;14.82;78.87;101497.94;1060339;27;20043;-79
2022/06/29 02:07:38;;;;;;;4.05;2.50;;;;;;;14.69;78.95;101495.41;1056153;28;20562;-78
2022/06/29 02:08:09;;;;;;;6.45;2.75;;;;;;;14.28;79.33;101502.31;1052070;28;20052;-78
2022/06/29 02:08:41;;;;;;;6.55;2.60;;;;;;;14.41;79.68;101504.81;1051433;28;20040;-78
2022/06/29 02:09:13;;;;;;;4.13;2.40;;;;;;;14.51;80.19;101502.44;1052421;28;20032;-78
2022/06/29 02:09:44;;;;;;;3.67;2.75;;;;;;;14.46;79.69;101502.31;1056919;28;20035;-78
2022/06/29 02:10:19;;;;;;;5.57;2.80;;;;;;;14.68;79.28;101499.16;1056959;27;20040;-78
2022/06/29 02:10:50;;;;;;;3.08;2.50;;;;;;;14.73;79.19;101493.91;1063076;27;20046;-78
2022/06/29 02:11:23;;;;;;;7.55;3.47;;;;;;;14.79;79.48;101493.84;1060530;27;20485;-78
2022/06/29 02:11:55;;;;;;;7.05;2.90;;;;;;;14.82;79.10;101500.63;1047221;28;20037;-78
2022/06/29 02:12:26;;;;;;;4.35;3.15;;;;;;;14.82;78.49;101490.69;1044199;28;20119;-78
2022/06/29 02:13:01;;;;;;;3.88;3.55;;;;;;;14.80;79.17;101486.63;1042372;28;20041;-78
2022/06/29 02:13:32;;;;;;;4.38;2.65;;;;;;;14.78;78.47;101497.53;1046434;28;20036;-78
2022/06/29 02:14:04;;;;;;;3.22;2.75;;;;;;;14.74;78.96;101490.19;1051685;28;20039;-78
2022/06/29 02:14:35;;;;;;;8.40;3.20;;;;;;;14.75;78.93;101499.88;1052731;28;20036;-78
2022/06/29 02:15:08;;;;;;;6.15;3.47;;;;;;;14.73;79.89;101501.97;1053343;28;20044;-78
2022/06/29 02:15:40;;;;;;;4.40;3.17;;;;;;;14.76;78.93;101496.13;1056050;28;20374;-78
2022/06/29 02:16:12;;;;;;;6.47;2.97;;;;;;;14.80;79.26;101500.03;1055517;27;20098;-79
2022/06/29 02:16:43;;;;;;;3.33;2.97;;;;;;;14.79;79.24;101501.03;1054401;28;20186;-78
2022/06/29 02:17:15;;;;;;;3.60;3.20;;;;;;;14.73;78.65;101496.59;1052679;28;20527;-78
2022/06/29 02:17:47;;;;;;;2.53;2.40;;;;;;;14.78;79.18;101496.72;1052102;28;20130;-78
2022/06/29 02:18:18;;;;;;;5.63;2.45;;;;;;;14.73;79.60;101493.91;1052354;28;20293;-80
2022/06/29 02:18:50;;;;;;;3.72;2.95;;;;;;;14.42;79.44;101498.41;1051873;28;20040;-78
2022/06/29 02:19:24;;;;;;;5.07;2.92;;;;;;;14.49;80.21;101496.50;1052427;28;20497;-78
2022/06/29 02:19:56;;;;;;;3.03;2.70;;;;;;;14.57;80.25;101492.69;1057300;28;20035;-78
2022/06/29 02:20:27;;;;;;;3.22;2.65;;;;;;;14.61;79.83;101490.38;1057468;27;20077;-79
2022/06/29 02:20:59;;;;;;;2.95;2.75;;;;;;;14.60;79.62;101494.09;1056725;27;20363;-79
2022/06/29 02:21:31;;;;;;;3.05;2.85;;;;;;;14.61;79.97;101493.06;1055642;28;20035;-79
2022/06/29 02:22:03;;;;;;;2.95;2.75;;;;;;;14.52;80.46;101490.69;1051374;28;20409;-79
2022/06/29 02:22:34;;;;;;;3.25;3.03;;;;;;;14.48;80.24;101489.50;1052684;28;20040;-78
2022/06/29 02:23:06;;;;;;;6.13;4.15;;;;;;;14.42;80.78;101490.38;1050920;28;20082;-79
2022/06/29 02:23:38;;;;;;;4.97;2.85;;;;;;;14.46;80.09;101496.13;1052748;27;20512;-79
2022/06/29 02:24:09;;;;;;;3.83;2.70;;;;;;;14.41;80.42;101487.91;1055820;28;20036;-79
2022/06/29 02:24:41;;;;;;;4.65;2.95;;;;;;;14.29;81.07;101493.22;1056244;28;20046;-79
2022/06/29 02:25:13;;;;;;;3.38;2.88;;;;;;;14.01;81.69;101498.28;1055408;28;20035;-79
2022/06/29 02:25:44;;;;;;;3.10;2.88;;;;;;;14.23;81.87;101499.47;1048078;28;20041;-79
2022/06/29 02:26:16;;;;;;;3.75;3.38;;;;;;;14.21;81.28;101490.84;1050182;28;20565;-79
2022/06/29 02:26:48;;;;;;;4.22;2.63;;;;;;;14.28;81.73;101494.28;1055492;28;20035;-79
2022/06/29 02:27:19;;;;;;;4.07;2.70;;;;;;;14.34;81.53;101493.38;1056634;27;20432;-79
2022/06/29 02:27:51;;;;;;;3.25;2.97;;;;;;;14.38;81.45;101496.41;1054938;28;20036;-79
2022/06/29 02:28:22;;;;;;;4.30;3.45;;;;;;;14.02;81.93;101497.25;1051610;28;20044;-79
2022/06/29 02:28:54;;;;;;;3.72;3.13;;;;;;;14.04;82.38;101495.16;1048257;28;21348;-79
2022/06/29 02:29:26;;;;;;;7.53;3.20;;;;;;;14.13;82.68;101491.13;1050038;28;20468;-79